sensor_id;sensor_type;location;lat;lon;timestamp;temperature;humidity
40758;DHT22;26462;47.384;19.218;2023-05-10T00:08:47;12.90;94.60
40758;DHT22;26462;47.384;19.218;2023-05-10T00:11:15;12.70;94.50
40758;DHT22;26462;47.384;19.218;2023-05-10T00:16:27;12.90;94.70
40758;DHT22;26462;47.384;19.218;2023-05-10T00:18:55;12.60;94.80
40758;DHT22;26462;47.384;19.218;2023-05-10T00:21:22;12.70;94.90
40758;DHT22;26462;47.384;19.218;2023-05-10T00:23:55;11.40;94.70
40758;DHT22;26462;47.384;19.218;2023-05-10T00:26:23;11.90;94.90
40758;DHT22;26462;47.384;19.218;2023-05-10T00:28:53;12.60;95.20
40758;DHT22;26462;47.384;19.218;2023-05-10T00:31:20;12.60;95.40
40758;DHT22;26462;47.384;19.218;2023-05-10T00:33:48;13.60;96.10
40758;DHT22;26462;47.384;19.218;2023-05-10T00:36:15;12.60;95.90
40758;DHT22;26462;47.384;19.218;2023-05-10T00:38:43;12.50;96.00
40758;DHT22;26462;47.384;19.218;2023-05-10T00:41:10;12.30;96.30
40758;DHT22;26462;47.384;19.218;2023-05-10T00:43:39;12.40;96.70
40758;DHT22;26462;47.384;19.218;2023-05-10T00:46:06;12.40;96.90
40758;DHT22;26462;47.384;19.218;2023-05-10T00:48:34;12.40;97.00
40758;DHT22;26462;47.384;19.218;2023-05-10T00:51:02;12.40;97.10
40758;DHT22;26462;47.384;19.218;2023-05-10T00:53:30;11.80;97.10
40758;DHT22;26462;47.384;19.218;2023-05-10T00:55:58;12.50;97.20
40758;DHT22;26462;47.384;19.218;2023-05-10T00:58:26;12.50;97.40
40758;DHT22;26462;47.384;19.218;2023-05-10T01:00:55;12.40;97.50
40758;DHT22;26462;47.384;19.218;2023-05-10T01:03:25;12.40;97.70
40758;DHT22;26462;47.384;19.218;2023-05-10T01:05:53;12.00;97.70
40758;DHT22;26462;47.384;19.218;2023-05-10T01:08:20;12.40;98.20
40758;DHT22;26462;47.384;19.218;2023-05-10T01:10:51;11.10;97.70
40758;DHT22;26462;47.384;19.218;2023-05-10T01:13:54;12.30;97.80
40758;DHT22;26462;47.384;19.218;2023-05-10T01:16:17;12.50;97.80
40758;DHT22;26462;47.384;19.218;2023-05-10T01:18:47;12.50;97.90
40758;DHT22;26462;47.384;19.218;2023-05-10T01:21:33;12.30;98.00
40758;DHT22;26462;47.384;19.218;2023-05-10T01:34:23;12.50;98.20
40758;DHT22;26462;47.384;19.218;2023-05-10T01:36:58;12.50;98.00
40758;DHT22;26462;47.384;19.218;2023-05-10T01:39:32;12.50;97.90
40758;DHT22;26462;47.384;19.218;2023-05-10T01:47:42;12.50;98.10
40758;DHT22;26462;47.384;19.218;2023-05-10T01:50:19;14.10;98.50
40758;DHT22;26462;47.384;19.218;2023-05-10T01:52:53;12.60;98.00
40758;DHT22;26462;47.384;19.218;2023-05-10T01:55:22;12.60;98.00
40758;DHT22;26462;47.384;19.218;2023-05-10T01:58:05;12.40;97.90
40758;DHT22;26462;47.384;19.218;2023-05-10T02:00:34;12.50;98.00
40758;DHT22;26462;47.384;19.218;2023-05-10T02:03:04;12.60;98.00
40758;DHT22;26462;47.384;19.218;2023-05-10T02:05:33;12.70;97.60
40758;DHT22;26462;47.384;19.218;2023-05-10T02:08:05;12.50;97.20
40758;DHT22;26462;47.384;19.218;2023-05-10T02:10:36;12.60;96.40
40758;DHT22;26462;47.384;19.218;2023-05-10T02:13:04;12.50;96.40
40758;DHT22;26462;47.384;19.218;2023-05-10T02:15:33;12.60;96.10
40758;DHT22;26462;47.384;19.218;2023-05-10T02:18:01;12.60;95.90
40758;DHT22;26462;47.384;19.218;2023-05-10T02:20:31;12.70;95.90
40758;DHT22;26462;47.384;19.218;2023-05-10T02:32:32;12.60;95.80
40758;DHT22;26462;47.384;19.218;2023-05-10T02:38:20;12.50;95.30
40758;DHT22;26462;47.384;19.218;2023-05-10T02:47:56;12.40;94.80
40758;DHT22;26462;47.384;19.218;2023-05-10T02:50:39;12.50;94.90
40758;DHT22;26462;47.384;19.218;2023-05-10T02:58:05;12.40;95.00
40758;DHT22;26462;47.384;19.218;2023-05-10T03:35:33;12.30;95.20
40758;DHT22;26462;47.384;19.218;2023-05-10T03:38:00;12.20;95.20
40758;DHT22;26462;47.384;19.218;2023-05-10T03:40:37;12.20;95.10
40758;DHT22;26462;47.384;19.218;2023-05-10T03:49:05;12.30;95.50
40758;DHT22;26462;47.384;19.218;2023-05-10T04:11:06;12.30;96.50
40758;DHT22;26462;47.384;19.218;2023-05-10T04:13:34;13.00;96.70
40758;DHT22;26462;47.384;19.218;2023-05-10T04:16:05;12.80;96.80
40758;DHT22;26462;47.384;19.218;2023-05-10T04:18:32;12.20;96.60
40758;DHT22;26462;47.384;19.218;2023-05-10T04:20:59;12.30;97.20
40758;DHT22;26462;47.384;19.218;2023-05-10T04:23:29;12.30;97.20
40758;DHT22;26462;47.384;19.218;2023-05-10T04:25:59;12.20;96.80
40758;DHT22;26462;47.384;19.218;2023-05-10T04:28:27;12.20;96.60
40758;DHT22;26462;47.384;19.218;2023-05-10T04:31:02;12.30;96.30
40758;DHT22;26462;47.384;19.218;2023-05-10T04:33:30;12.20;96.30
40758;DHT22;26462;47.384;19.218;2023-05-10T04:36:03;12.20;96.20
40758;DHT22;26462;47.384;19.218;2023-05-10T04:38:33;12.30;96.30
40758;DHT22;26462;47.384;19.218;2023-05-10T04:41:07;12.20;96.30
40758;DHT22;26462;47.384;19.218;2023-05-10T04:43:34;12.20;96.30
40758;DHT22;26462;47.384;19.218;2023-05-10T04:46:02;11.30;95.90
40758;DHT22;26462;47.384;19.218;2023-05-10T04:48:29;12.80;96.50
40758;DHT22;26462;47.384;19.218;2023-05-10T04:50:56;12.20;95.90
40758;DHT22;26462;47.384;19.218;2023-05-10T04:53:24;12.40;95.60
40758;DHT22;26462;47.384;19.218;2023-05-10T04:55:54;12.30;95.90
40758;DHT22;26462;47.384;19.218;2023-05-10T04:58:22;12.50;95.70
40758;DHT22;26462;47.384;19.218;2023-05-10T05:00:50;12.50;95.50
40758;DHT22;26462;47.384;19.218;2023-05-10T05:03:21;12.60;95.60
40758;DHT22;26462;47.384;19.218;2023-05-10T05:05:49;14.10;95.50
40758;DHT22;26462;47.384;19.218;2023-05-10T05:08:19;12.80;95.10
40758;DHT22;26462;47.384;19.218;2023-05-10T05:10:46;12.90;94.60
40758;DHT22;26462;47.384;19.218;2023-05-10T05:13:14;13.00;94.40
40758;DHT22;26462;47.384;19.218;2023-05-10T05:15:41;13.10;94.10
40758;DHT22;26462;47.384;19.218;2023-05-10T05:18:08;13.00;94.20
40758;DHT22;26462;47.384;19.218;2023-05-10T05:20:36;13.10;94.10
40758;DHT22;26462;47.384;19.218;2023-05-10T05:23:03;13.20;93.70
40758;DHT22;26462;47.384;19.218;2023-05-10T05:25:30;13.30;93.40
40758;DHT22;26462;47.384;19.218;2023-05-10T05:28:00;13.40;93.10
40758;DHT22;26462;47.384;19.218;2023-05-10T05:30:30;13.50;92.70
40758;DHT22;26462;47.384;19.218;2023-05-10T05:32:59;13.60;92.40
40758;DHT22;26462;47.384;19.218;2023-05-10T05:35:26;13.80;92.20
40758;DHT22;26462;47.384;19.218;2023-05-10T05:37:53;14.00;92.00
40758;DHT22;26462;47.384;19.218;2023-05-10T05:40:25;14.20;91.30
40758;DHT22;26462;47.384;19.218;2023-05-10T05:42:52;14.20;90.80
40758;DHT22;26462;47.384;19.218;2023-05-10T05:48:25;14.50;90.40
40758;DHT22;26462;47.384;19.218;2023-05-10T05:50:56;14.70;89.40
40758;DHT22;26462;47.384;19.218;2023-05-10T05:53:23;14.40;88.50
40758;DHT22;26462;47.384;19.218;2023-05-10T05:55:52;14.90;88.30
40758;DHT22;26462;47.384;19.218;2023-05-10T06:01:47;14.90;88.00
40758;DHT22;26462;47.384;19.218;2023-05-10T06:04:52;15.10;88.20
40758;DHT22;26462;47.384;19.218;2023-05-10T06:07:28;15.30;87.30
40758;DHT22;26462;47.384;19.218;2023-05-10T06:09:58;15.30;86.30
40758;DHT22;26462;47.384;19.218;2023-05-10T06:12:51;15.60;85.90
40758;DHT22;26462;47.384;19.218;2023-05-10T06:15:23;15.80;85.60
40758;DHT22;26462;47.384;19.218;2023-05-10T06:18:24;15.60;85.30
40758;DHT22;26462;47.384;19.218;2023-05-10T06:22:20;15.50;87.40
40758;DHT22;26462;47.384;19.218;2023-05-10T06:24:49;15.30;89.10
40758;DHT22;26462;47.384;19.218;2023-05-10T06:27:19;15.50;88.90
40758;DHT22;26462;47.384;19.218;2023-05-10T06:29:56;15.50;89.50
40758;DHT22;26462;47.384;19.218;2023-05-10T06:35:51;16.50;86.10
40758;DHT22;26462;47.384;19.218;2023-05-10T06:38:44;16.80;82.70
40758;DHT22;26462;47.384;19.218;2023-05-10T06:41:19;16.50;81.80
40758;DHT22;26462;47.384;19.218;2023-05-10T06:44:32;16.50;81.20
40758;DHT22;26462;47.384;19.218;2023-05-10T06:47:12;16.60;80.30
40758;DHT22;26462;47.384;19.218;2023-05-10T06:50:43;16.90;79.90
40758;DHT22;26462;47.384;19.218;2023-05-10T06:54:00;16.90;78.60
40758;DHT22;26462;47.384;19.218;2023-05-10T06:57:21;16.60;79.40
40758;DHT22;26462;47.384;19.218;2023-05-10T07:00:04;16.50;80.30
40758;DHT22;26462;47.384;19.218;2023-05-10T07:03:00;16.80;80.60
40758;DHT22;26462;47.384;19.218;2023-05-10T07:05:39;16.60;79.40
40758;DHT22;26462;47.384;19.218;2023-05-10T07:09:21;16.60;80.40
40758;DHT22;26462;47.384;19.218;2023-05-10T07:15:58;17.50;77.80
40758;DHT22;26462;47.384;19.218;2023-05-10T07:18:29;17.20;76.80
40758;DHT22;26462;47.384;19.218;2023-05-10T07:20:57;17.50;77.70
40758;DHT22;26462;47.384;19.218;2023-05-10T07:23:39;17.70;76.30
40758;DHT22;26462;47.384;19.218;2023-05-10T07:26:10;17.80;76.20
40758;DHT22;26462;47.384;19.218;2023-05-10T07:28:44;17.30;76.80
40758;DHT22;26462;47.384;19.218;2023-05-10T07:34:57;17.40;77.00
40758;DHT22;26462;47.384;19.218;2023-05-10T07:37:32;17.90;77.30
40758;DHT22;26462;47.384;19.218;2023-05-10T07:41:04;18.10;74.80
40758;DHT22;26462;47.384;19.218;2023-05-10T07:50:45;17.30;76.40
40758;DHT22;26462;47.384;19.218;2023-05-10T07:53:32;17.40;76.40
40758;DHT22;26462;47.384;19.218;2023-05-10T07:56:19;18.40;74.80
40758;DHT22;26462;47.384;19.218;2023-05-10T07:58:46;18.30;73.90
40758;DHT22;26462;47.384;19.218;2023-05-10T08:04:04;18.30;73.90
40758;DHT22;26462;47.384;19.218;2023-05-10T08:06:33;17.60;76.10
40758;DHT22;26462;47.384;19.218;2023-05-10T08:09:00;17.70;75.70
40758;DHT22;26462;47.384;19.218;2023-05-10T08:11:33;17.50;75.60
40758;DHT22;26462;47.384;19.218;2023-05-10T08:14:01;16.90;75.90
40758;DHT22;26462;47.384;19.218;2023-05-10T08:19:16;17.40;75.40
40758;DHT22;26462;47.384;19.218;2023-05-10T08:21:47;17.80;76.00
40758;DHT22;26462;47.384;19.218;2023-05-10T08:27:10;17.50;75.30
40758;DHT22;26462;47.384;19.218;2023-05-10T08:29:38;17.40;76.40
40758;DHT22;26462;47.384;19.218;2023-05-10T08:32:22;17.90;75.70
40758;DHT22;26462;47.384;19.218;2023-05-10T08:34:49;18.00;75.00
40758;DHT22;26462;47.384;19.218;2023-05-10T08:37:17;17.70;75.10
40758;DHT22;26462;47.384;19.218;2023-05-10T08:39:46;17.60;76.60
40758;DHT22;26462;47.384;19.218;2023-05-10T08:42:16;18.10;75.90
40758;DHT22;26462;47.384;19.218;2023-05-10T08:44:43;17.20;75.10
40758;DHT22;26462;47.384;19.218;2023-05-10T08:47:15;17.40;76.70
40758;DHT22;26462;47.384;19.218;2023-05-10T08:49:45;17.10;76.30
40758;DHT22;26462;47.384;19.218;2023-05-10T08:52:14;17.10;77.40
40758;DHT22;26462;47.384;19.218;2023-05-10T08:57:45;17.20;77.10
40758;DHT22;26462;47.384;19.218;2023-05-10T09:00:14;17.60;74.60
40758;DHT22;26462;47.384;19.218;2023-05-10T09:02:55;17.50;74.30
40758;DHT22;26462;47.384;19.218;2023-05-10T09:15:59;17.60;74.50
40758;DHT22;26462;47.384;19.218;2023-05-10T09:18:59;18.20;73.90
40758;DHT22;26462;47.384;19.218;2023-05-10T09:24:33;18.10;72.80
40758;DHT22;26462;47.384;19.218;2023-05-10T09:30:41;17.70;73.10
40758;DHT22;26462;47.384;19.218;2023-05-10T09:36:24;17.70;74.30
40758;DHT22;26462;47.384;19.218;2023-05-10T09:39:07;18.20;73.30
40758;DHT22;26462;47.384;19.218;2023-05-10T09:41:55;18.40;73.40
40758;DHT22;26462;47.384;19.218;2023-05-10T09:44:42;18.60;72.40
40758;DHT22;26462;47.384;19.218;2023-05-10T09:47:28;18.30;71.50
40758;DHT22;26462;47.384;19.218;2023-05-10T09:50:35;18.80;71.40
40758;DHT22;26462;47.384;19.218;2023-05-10T09:56:54;18.40;71.30
40758;DHT22;26462;47.384;19.218;2023-05-10T09:59:42;18.40;72.10
40758;DHT22;26462;47.384;19.218;2023-05-10T10:02:29;18.40;71.30
40758;DHT22;26462;47.384;19.218;2023-05-10T10:08:59;18.60;69.20
40758;DHT22;26462;47.384;19.218;2023-05-10T10:12:12;18.30;69.10
40758;DHT22;26462;47.384;19.218;2023-05-10T10:18:07;17.90;67.90
40758;DHT22;26462;47.384;19.218;2023-05-10T10:20:40;18.90;68.00
40758;DHT22;26462;47.384;19.218;2023-05-10T10:23:31;19.10;66.70
40758;DHT22;26462;47.384;19.218;2023-05-10T10:26:22;18.80;66.10
40758;DHT22;26462;47.384;19.218;2023-05-10T10:34:33;18.40;68.10
40758;DHT22;26462;47.384;19.218;2023-05-10T10:37:52;18.50;68.40
40758;DHT22;26462;47.384;19.218;2023-05-10T10:40:43;18.40;68.20
40758;DHT22;26462;47.384;19.218;2023-05-10T10:51:03;19.00;68.10
40758;DHT22;26462;47.384;19.218;2023-05-10T10:57:26;18.50;66.60
40758;DHT22;26462;47.384;19.218;2023-05-10T11:00:32;18.40;67.20
40758;DHT22;26462;47.384;19.218;2023-05-10T11:03:27;18.30;67.50
40758;DHT22;26462;47.384;19.218;2023-05-10T11:05:59;19.50;68.20
40758;DHT22;26462;47.384;19.218;2023-05-10T11:26:32;18.70;65.80
40758;DHT22;26462;47.384;19.218;2023-05-10T11:29:08;18.60;65.50
40758;DHT22;26462;47.384;19.218;2023-05-10T11:36:26;18.60;66.10
40758;DHT22;26462;47.384;19.218;2023-05-10T11:39:03;18.70;64.80
40758;DHT22;26462;47.384;19.218;2023-05-10T11:46:13;19.60;64.60
40758;DHT22;26462;47.384;19.218;2023-05-10T11:48:49;19.40;63.20
40758;DHT22;26462;47.384;19.218;2023-05-10T11:54:11;19.80;64.20
40758;DHT22;26462;47.384;19.218;2023-05-10T11:56:39;19.50;64.20
40758;DHT22;26462;47.384;19.218;2023-05-10T11:59:06;19.20;63.60
40758;DHT22;26462;47.384;19.218;2023-05-10T12:01:48;19.00;64.00
40758;DHT22;26462;47.384;19.218;2023-05-10T12:04:15;18.90;65.50
40758;DHT22;26462;47.384;19.218;2023-05-10T12:06:44;18.90;65.10
40758;DHT22;26462;47.384;19.218;2023-05-10T12:09:12;19.10;64.90
40758;DHT22;26462;47.384;19.218;2023-05-10T12:11:39;19.10;65.10
40758;DHT22;26462;47.384;19.218;2023-05-10T12:14:11;19.20;64.40
40758;DHT22;26462;47.384;19.218;2023-05-10T12:16:38;19.00;64.20
40758;DHT22;26462;47.384;19.218;2023-05-10T12:19:05;19.10;64.10
40758;DHT22;26462;47.384;19.218;2023-05-10T12:21:32;19.20;64.10
40758;DHT22;26462;47.384;19.218;2023-05-10T12:24:03;19.10;64.00
40758;DHT22;26462;47.384;19.218;2023-05-10T12:26:31;18.90;62.80
40758;DHT22;26462;47.384;19.218;2023-05-10T12:29:32;19.00;63.00
40758;DHT22;26462;47.384;19.218;2023-05-10T12:32:10;19.10;62.60
40758;DHT22;26462;47.384;19.218;2023-05-10T12:34:38;19.30;63.60
40758;DHT22;26462;47.384;19.218;2023-05-10T12:37:07;19.30;63.40
40758;DHT22;26462;47.384;19.218;2023-05-10T12:39:40;19.20;62.80
40758;DHT22;26462;47.384;19.218;2023-05-10T12:42:12;19.30;63.40
40758;DHT22;26462;47.384;19.218;2023-05-10T12:44:39;19.40;62.40
40758;DHT22;26462;47.384;19.218;2023-05-10T12:47:07;19.40;62.60
40758;DHT22;26462;47.384;19.218;2023-05-10T12:49:34;19.40;62.50
40758;DHT22;26462;47.384;19.218;2023-05-10T12:52:03;19.50;62.70
40758;DHT22;26462;47.384;19.218;2023-05-10T12:54:30;19.40;62.30
40758;DHT22;26462;47.384;19.218;2023-05-10T12:56:57;19.30;63.00
40758;DHT22;26462;47.384;19.218;2023-05-10T12:59:25;19.40;62.10
40758;DHT22;26462;47.384;19.218;2023-05-10T13:01:52;19.50;61.40
40758;DHT22;26462;47.384;19.218;2023-05-10T13:04:19;19.60;62.60
40758;DHT22;26462;47.384;19.218;2023-05-10T13:06:46;19.70;61.20
40758;DHT22;26462;47.384;19.218;2023-05-10T13:09:17;19.60;60.90
40758;DHT22;26462;47.384;19.218;2023-05-10T13:11:48;19.60;60.60
40758;DHT22;26462;47.384;19.218;2023-05-10T13:14:18;19.60;59.80
40758;DHT22;26462;47.384;19.218;2023-05-10T13:16:47;19.60;60.60
40758;DHT22;26462;47.384;19.218;2023-05-10T13:19:17;19.90;60.70
40758;DHT22;26462;47.384;19.218;2023-05-10T13:21:47;19.90;60.00
40758;DHT22;26462;47.384;19.218;2023-05-10T13:24:16;19.60;59.40
40758;DHT22;26462;47.384;19.218;2023-05-10T13:26:46;19.50;59.80
40758;DHT22;26462;47.384;19.218;2023-05-10T13:29:13;19.50;60.20
40758;DHT22;26462;47.384;19.218;2023-05-10T13:31:44;19.50;60.40
40758;DHT22;26462;47.384;19.218;2023-05-10T13:34:12;19.70;60.10
40758;DHT22;26462;47.384;19.218;2023-05-10T13:36:41;19.70;59.30
40758;DHT22;26462;47.384;19.218;2023-05-10T13:39:11;20.00;59.50
40758;DHT22;26462;47.384;19.218;2023-05-10T13:41:41;20.10;58.80
40758;DHT22;26462;47.384;19.218;2023-05-10T13:44:08;20.30;58.60
40758;DHT22;26462;47.384;19.218;2023-05-10T13:46:36;20.80;59.20
40758;DHT22;26462;47.384;19.218;2023-05-10T13:49:53;20.70;58.10
40758;DHT22;26462;47.384;19.218;2023-05-10T13:56:45;20.60;57.10
40758;DHT22;26462;47.384;19.218;2023-05-10T14:02:33;19.60;56.60
40758;DHT22;26462;47.384;19.218;2023-05-10T14:09:18;20.30;57.90
40758;DHT22;26462;47.384;19.218;2023-05-10T14:12:15;19.90;57.00
40758;DHT22;26462;47.384;19.218;2023-05-10T14:15:40;20.30;56.90
40758;DHT22;26462;47.384;19.218;2023-05-10T14:18:57;20.30;57.20
40758;DHT22;26462;47.384;19.218;2023-05-10T14:21:47;20.30;56.60
40758;DHT22;26462;47.384;19.218;2023-05-10T14:27:23;20.20;56.90
40758;DHT22;26462;47.384;19.218;2023-05-10T14:29:51;20.00;56.80
40758;DHT22;26462;47.384;19.218;2023-05-10T14:32:50;20.10;57.10
40758;DHT22;26462;47.384;19.218;2023-05-10T14:43:42;19.80;58.30
40758;DHT22;26462;47.384;19.218;2023-05-10T14:46:09;19.50;58.30
40758;DHT22;26462;47.384;19.218;2023-05-10T14:48:36;19.50;59.30
40758;DHT22;26462;47.384;19.218;2023-05-10T14:51:03;19.50;59.10
40758;DHT22;26462;47.384;19.218;2023-05-10T14:53:30;19.40;58.70
40758;DHT22;26462;47.384;19.218;2023-05-10T14:55:59;19.30;58.20
40758;DHT22;26462;47.384;19.218;2023-05-10T14:58:50;19.20;58.10
40758;DHT22;26462;47.384;19.218;2023-05-10T15:01:18;19.10;57.70
40758;DHT22;26462;47.384;19.218;2023-05-10T15:03:47;19.00;57.40
40758;DHT22;26462;47.384;19.218;2023-05-10T15:06:34;19.10;57.70
40758;DHT22;26462;47.384;19.218;2023-05-10T15:09:02;19.10;57.70
40758;DHT22;26462;47.384;19.218;2023-05-10T15:11:31;19.00;57.90
40758;DHT22;26462;47.384;19.218;2023-05-10T15:14:03;19.10;57.80
40758;DHT22;26462;47.384;19.218;2023-05-10T15:16:30;19.00;57.50
40758;DHT22;26462;47.384;19.218;2023-05-10T15:19:02;19.00;57.70
40758;DHT22;26462;47.384;19.218;2023-05-10T15:21:29;19.00;57.30
40758;DHT22;26462;47.384;19.218;2023-05-10T15:24:02;19.10;57.40
40758;DHT22;26462;47.384;19.218;2023-05-10T15:26:53;19.10;57.80
40758;DHT22;26462;47.384;19.218;2023-05-10T15:29:20;19.00;57.50
40758;DHT22;26462;47.384;19.218;2023-05-10T15:31:48;19.00;57.80
40758;DHT22;26462;47.384;19.218;2023-05-10T15:34:21;19.10;58.10
40758;DHT22;26462;47.384;19.218;2023-05-10T15:36:51;19.20;58.00
40758;DHT22;26462;47.384;19.218;2023-05-10T15:39:20;19.30;58.20
40758;DHT22;26462;47.384;19.218;2023-05-10T15:41:47;19.30;57.80
40758;DHT22;26462;47.384;19.218;2023-05-10T15:44:16;19.20;58.00
40758;DHT22;26462;47.384;19.218;2023-05-10T15:46:53;19.00;57.60
40758;DHT22;26462;47.384;19.218;2023-05-10T15:49:20;19.10;57.50
40758;DHT22;26462;47.384;19.218;2023-05-10T15:51:47;19.00;58.00
40758;DHT22;26462;47.384;19.218;2023-05-10T15:54:17;19.00;58.60
40758;DHT22;26462;47.384;19.218;2023-05-10T15:56:55;18.90;58.60
40758;DHT22;26462;47.384;19.218;2023-05-10T15:59:23;18.80;58.30
40758;DHT22;26462;47.384;19.218;2023-05-10T16:01:50;18.70;58.40
40758;DHT22;26462;47.384;19.218;2023-05-10T16:04:18;18.70;58.20
40758;DHT22;26462;47.384;19.218;2023-05-10T16:06:45;18.60;57.90
40758;DHT22;26462;47.384;19.218;2023-05-10T16:09:12;18.60;58.50
40758;DHT22;26462;47.384;19.218;2023-05-10T16:11:42;18.50;58.80
40758;DHT22;26462;47.384;19.218;2023-05-10T16:14:09;18.50;57.90
40758;DHT22;26462;47.384;19.218;2023-05-10T16:16:38;18.50;57.80
40758;DHT22;26462;47.384;19.218;2023-05-10T16:19:05;18.50;58.20
40758;DHT22;26462;47.384;19.218;2023-05-10T16:21:35;18.40;58.40
40758;DHT22;26462;47.384;19.218;2023-05-10T16:24:20;18.50;58.60
40758;DHT22;26462;47.384;19.218;2023-05-10T16:26:47;18.40;58.70
40758;DHT22;26462;47.384;19.218;2023-05-10T16:29:16;18.40;58.50
40758;DHT22;26462;47.384;19.218;2023-05-10T16:31:43;18.20;58.90
40758;DHT22;26462;47.384;19.218;2023-05-10T16:34:10;19.40;59.60
40758;DHT22;26462;47.384;19.218;2023-05-10T16:36:37;18.30;59.10
40758;DHT22;26462;47.384;19.218;2023-05-10T16:39:05;18.30;59.80
40758;DHT22;26462;47.384;19.218;2023-05-10T16:41:39;18.30;60.90
40758;DHT22;26462;47.384;19.218;2023-05-10T16:44:06;18.20;61.80
40758;DHT22;26462;47.384;19.218;2023-05-10T16:46:33;18.20;63.10
40758;DHT22;26462;47.384;19.218;2023-05-10T16:49:01;18.10;62.60
40758;DHT22;26462;47.384;19.218;2023-05-10T16:51:28;18.10;62.40
40758;DHT22;26462;47.384;19.218;2023-05-10T16:53:55;18.00;62.50
40758;DHT22;26462;47.384;19.218;2023-05-10T16:59:24;18.00;62.50
40758;DHT22;26462;47.384;19.218;2023-05-10T17:01:55;17.90;62.50
40758;DHT22;26462;47.384;19.218;2023-05-10T17:04:24;17.90;62.60
40758;DHT22;26462;47.384;19.218;2023-05-10T17:06:51;17.80;62.60
40758;DHT22;26462;47.384;19.218;2023-05-10T17:09:18;17.90;63.00
40758;DHT22;26462;47.384;19.218;2023-05-10T17:11:46;17.80;62.20
40758;DHT22;26462;47.384;19.218;2023-05-10T17:14:13;17.80;62.70
40758;DHT22;26462;47.384;19.218;2023-05-10T17:16:47;17.80;62.90
40758;DHT22;26462;47.384;19.218;2023-05-10T17:19:15;17.80;63.20
40758;DHT22;26462;47.384;19.218;2023-05-10T17:21:43;17.70;63.20
40758;DHT22;26462;47.384;19.218;2023-05-10T17:24:12;17.60;63.40
40758;DHT22;26462;47.384;19.218;2023-05-10T17:26:40;17.60;63.60
40758;DHT22;26462;47.384;19.218;2023-05-10T17:29:38;17.60;63.90
40758;DHT22;26462;47.384;19.218;2023-05-10T17:32:05;17.50;64.30
40758;DHT22;26462;47.384;19.218;2023-05-10T17:34:35;16.70;64.00
40758;DHT22;26462;47.384;19.218;2023-05-10T17:37:03;17.40;64.80
40758;DHT22;26462;47.384;19.218;2023-05-10T17:39:31;17.30;65.10
40758;DHT22;26462;47.384;19.218;2023-05-10T17:41:59;17.30;65.80
40758;DHT22;26462;47.384;19.218;2023-05-10T17:44:27;18.00;66.40
40758;DHT22;26462;47.384;19.218;2023-05-10T17:46:58;17.50;66.60
40758;DHT22;26462;47.384;19.218;2023-05-10T17:53:15;17.10;67.30
40758;DHT22;26462;47.384;19.218;2023-05-10T17:56:30;17.00;68.00
40758;DHT22;26462;47.384;19.218;2023-05-10T17:59:03;16.90;68.20
40758;DHT22;26462;47.384;19.218;2023-05-10T18:01:52;16.90;68.50
40758;DHT22;26462;47.384;19.218;2023-05-10T18:04:43;16.90;68.80
40758;DHT22;26462;47.384;19.218;2023-05-10T18:07:15;16.80;69.10
40758;DHT22;26462;47.384;19.218;2023-05-10T18:09:46;16.80;69.60
40758;DHT22;26462;47.384;19.218;2023-05-10T18:12:14;16.70;69.50
40758;DHT22;26462;47.384;19.218;2023-05-10T18:14:48;16.70;69.50
40758;DHT22;26462;47.384;19.218;2023-05-10T18:17:19;16.70;69.50
40758;DHT22;26462;47.384;19.218;2023-05-10T18:23:24;16.50;69.40
40758;DHT22;26462;47.384;19.218;2023-05-10T18:25:53;16.40;68.80
40758;DHT22;26462;47.384;19.218;2023-05-10T18:33:03;16.30;69.10
40758;DHT22;26462;47.384;19.218;2023-05-10T18:36:31;16.30;69.30
40758;DHT22;26462;47.384;19.218;2023-05-10T18:42:22;16.30;69.20
40758;DHT22;26462;47.384;19.218;2023-05-10T18:45:06;16.20;69.50
40758;DHT22;26462;47.384;19.218;2023-05-10T18:48:10;16.20;69.70
40758;DHT22;26462;47.384;19.218;2023-05-10T18:50:45;16.00;69.50
40758;DHT22;26462;47.384;19.218;2023-05-10T18:53:14;16.00;70.00
40758;DHT22;26462;47.384;19.218;2023-05-10T18:56:21;16.00;69.70
40758;DHT22;26462;47.384;19.218;2023-05-10T18:59:27;15.20;69.70
40758;DHT22;26462;47.384;19.218;2023-05-10T19:03:00;15.90;69.80
40758;DHT22;26462;47.384;19.218;2023-05-10T19:05:49;15.80;70.10
40758;DHT22;26462;47.384;19.218;2023-05-10T19:08:52;15.90;70.50
40758;DHT22;26462;47.384;19.218;2023-05-10T19:32:20;15.60;71.60
40758;DHT22;26462;47.384;19.218;2023-05-10T19:38:24;15.50;71.50
40758;DHT22;26462;47.384;19.218;2023-05-10T19:41:02;15.40;71.60
40758;DHT22;26462;47.384;19.218;2023-05-10T19:50:18;15.40;72.00
40758;DHT22;26462;47.384;19.218;2023-05-10T19:57:03;15.30;72.30
40758;DHT22;26462;47.384;19.218;2023-05-10T20:00:04;15.40;72.20
40758;DHT22;26462;47.384;19.218;2023-05-10T20:03:04;15.20;72.00
40758;DHT22;26462;47.384;19.218;2023-05-10T20:05:50;15.10;72.30
40758;DHT22;26462;47.384;19.218;2023-05-10T20:08:26;15.20;72.20
40758;DHT22;26462;47.384;19.218;2023-05-10T20:11:43;15.20;72.50
40758;DHT22;26462;47.384;19.218;2023-05-10T20:15:18;14.40;72.00
40758;DHT22;26462;47.384;19.218;2023-05-10T20:21:28;15.00;72.60
40758;DHT22;26462;47.384;19.218;2023-05-10T20:24:30;15.10;73.10
40758;DHT22;26462;47.384;19.218;2023-05-10T20:27:04;15.10;73.50
40758;DHT22;26462;47.384;19.218;2023-05-10T20:30:05;15.20;73.40
40758;DHT22;26462;47.384;19.218;2023-05-10T20:33:00;15.10;73.70
40758;DHT22;26462;47.384;19.218;2023-05-10T20:38:48;14.90;73.80
40758;DHT22;26462;47.384;19.218;2023-05-10T20:41:37;15.10;74.30
40758;DHT22;26462;47.384;19.218;2023-05-10T20:50:43;14.80;74.00
40758;DHT22;26462;47.384;19.218;2023-05-10T20:56:52;14.90;74.20
40758;DHT22;26462;47.384;19.218;2023-05-10T21:00:06;14.70;74.60
40758;DHT22;26462;47.384;19.218;2023-05-10T21:02:56;14.70;74.80
40758;DHT22;26462;47.384;19.218;2023-05-10T21:08:26;15.00;75.10
40758;DHT22;26462;47.384;19.218;2023-05-10T21:11:34;14.80;74.80
40758;DHT22;26462;47.384;19.218;2023-05-10T21:14:20;14.70;74.80
40758;DHT22;26462;47.384;19.218;2023-05-10T21:17:55;14.90;75.40
40758;DHT22;26462;47.384;19.218;2023-05-10T21:27:05;14.50;75.60
40758;DHT22;26462;47.384;19.218;2023-05-10T21:30:13;14.60;75.90
40758;DHT22;26462;47.384;19.218;2023-05-10T21:33:02;14.40;76.20
40758;DHT22;26462;47.384;19.218;2023-05-10T21:35:29;15.50;76.80
40758;DHT22;26462;47.384;19.218;2023-05-10T21:38:32;14.50;76.50
40758;DHT22;26462;47.384;19.218;2023-05-10T21:41:32;14.40;76.40